Austin, Texas
Traffic Map
Current Weather Conditions
Austin, Texas
Overcast
Overcast
52°
Feels Like: 52°
Wind Chill: 52° Ceiling: 2200
Heat Index: 52° Visibility: 10mi
Dew Point: 43° Wind: 5mph
Humidity: 71% Direction: ° ()
Pressure: 30.27in Gusts: 0mph
Raw Report DataKATT 102251Z AUTO VRB04KT 10SM OVC022 11/06 A3027 RMK AO2 SLP256 T01110061
Traffic Incident Summary
Active as of:
Severity:
Category:
InformationThere was an issue retrieving the traffic information for this location. Please try a different location or try again shortly.
Advertisements
Track Severe Weather on mobile